sensor_id;sensor_type;location;lat;lon;timestamp;P1;durP1;ratioP1;P2;durP2;ratioP2
84729;SDS011;74950;56.832;41.398;2024-03-17T00:00:11;18.17;;;6.30;;
84729;SDS011;74950;56.832;41.398;2024-03-17T00:02:41;18.52;;;4.95;;
84729;SDS011;74950;56.832;41.398;2024-03-17T00:05:07;17.27;;;4.13;;
84729;SDS011;74950;56.832;41.398;2024-03-17T00:07:33;7.38;;;3.35;;
84729;SDS011;74950;56.832;41.398;2024-03-17T00:10:00;21.50;;;4.45;;
84729;SDS011;74950;56.832;41.398;2024-03-17T00:12:26;11.80;;;3.58;;
84729;SDS011;74950;56.832;41.398;2024-03-17T00:14:52;13.85;;;4.63;;
84729;SDS011;74950;56.832;41.398;2024-03-17T00:17:18;10.98;;;4.40;;
84729;SDS011;74950;56.832;41.398;2024-03-17T00:19:46;15.32;;;4.35;;
84729;SDS011;74950;56.832;41.398;2024-03-17T00:22:13;16.77;;;6.60;;
84729;SDS011;74950;56.832;41.398;2024-03-17T00:24:45;17.40;;;7.93;;
84729;SDS011;74950;56.832;41.398;2024-03-17T00:27:11;22.95;;;8.30;;
84729;SDS011;74950;56.832;41.398;2024-03-17T00:29:39;21.08;;;8.10;;
84729;SDS011;74950;56.832;41.398;2024-03-17T00:32:05;15.68;;;6.55;;
84729;SDS011;74950;56.832;41.398;2024-03-17T00:34:32;24.92;;;10.20;;
84729;SDS011;74950;56.832;41.398;2024-03-17T00:36:58;18.92;;;6.90;;
84729;SDS011;74950;56.832;41.398;2024-03-17T00:39:28;17.48;;;7.72;;
84729;SDS011;74950;56.832;41.398;2024-03-17T00:41:54;9.02;;;4.72;;
84729;SDS011;74950;56.832;41.398;2024-03-17T00:44:21;13.50;;;6.18;;
84729;SDS011;74950;56.832;41.398;2024-03-17T00:46:47;27.63;;;9.32;;
84729;SDS011;74950;56.832;41.398;2024-03-17T00:49:14;23.90;;;6.63;;
84729;SDS011;74950;56.832;41.398;2024-03-17T00:51:40;18.08;;;3.97;;
84729;SDS011;74950;56.832;41.398;2024-03-17T00:54:08;18.80;;;5.13;;
84729;SDS011;74950;56.832;41.398;2024-03-17T00:56:35;9.07;;;3.03;;
84729;SDS011;74950;56.832;41.398;2024-03-17T00:59:01;21.27;;;3.40;;
84729;SDS011;74950;56.832;41.398;2024-03-17T01:01:27;11.52;;;2.45;;
84729;SDS011;74950;56.832;41.398;2024-03-17T01:03:54;12.15;;;2.05;;
84729;SDS011;74950;56.832;41.398;2024-03-17T01:06:20;9.70;;;4.50;;
84729;SDS011;74950;56.832;41.398;2024-03-17T01:08:47;11.00;;;2.55;;
84729;SDS011;74950;56.832;41.398;2024-03-17T01:11:15;13.00;;;3.08;;
84729;SDS011;74950;56.832;41.398;2024-03-17T01:14:01;27.02;;;3.65;;
84729;SDS011;74950;56.832;41.398;2024-03-17T01:16:27;23.70;;;4.15;;
84729;SDS011;74950;56.832;41.398;2024-03-17T01:18:54;24.80;;;3.50;;
84729;SDS011;74950;56.832;41.398;2024-03-17T01:21:20;14.93;;;4.28;;
84729;SDS011;74950;56.832;41.398;2024-03-17T01:23:47;20.38;;;5.03;;
84729;SDS011;74950;56.832;41.398;2024-03-17T01:26:15;19.30;;;5.32;;
84729;SDS011;74950;56.832;41.398;2024-03-17T01:28:41;10.93;;;3.38;;
84729;SDS011;74950;56.832;41.398;2024-03-17T01:31:08;13.52;;;3.50;;
84729;SDS011;74950;56.832;41.398;2024-03-17T01:33:35;10.27;;;2.58;;
84729;SDS011;74950;56.832;41.398;2024-03-17T01:36:01;25.10;;;3.28;;
84729;SDS011;74950;56.832;41.398;2024-03-17T01:38:27;13.88;;;2.63;;
84729;SDS011;74950;56.832;41.398;2024-03-17T01:40:53;16.05;;;2.40;;
84729;SDS011;74950;56.832;41.398;2024-03-17T01:43:20;8.68;;;2.65;;
84729;SDS011;74950;56.832;41.398;2024-03-17T01:45:46;21.45;;;3.13;;
84729;SDS011;74950;56.832;41.398;2024-03-17T01:48:13;17.45;;;3.25;;
84729;SDS011;74950;56.832;41.398;2024-03-17T01:50:41;11.90;;;2.75;;
84729;SDS011;74950;56.832;41.398;2024-03-17T01:53:08;14.50;;;2.75;;
84729;SDS011;74950;56.832;41.398;2024-03-17T01:55:39;10.25;;;2.78;;
84729;SDS011;74950;56.832;41.398;2024-03-17T01:58:06;31.80;;;2.90;;
84729;SDS011;74950;56.832;41.398;2024-03-17T02:00:39;8.88;;;2.75;;
84729;SDS011;74950;56.832;41.398;2024-03-17T02:03:06;7.78;;;2.42;;
84729;SDS011;74950;56.832;41.398;2024-03-17T02:05:35;7.75;;;1.85;;
84729;SDS011;74950;56.832;41.398;2024-03-17T02:08:06;29.83;;;2.78;;
84729;SDS011;74950;56.832;41.398;2024-03-17T02:10:33;13.32;;;2.30;;
84729;SDS011;74950;56.832;41.398;2024-03-17T02:13:00;7.35;;;2.72;;
84729;SDS011;74950;56.832;41.398;2024-03-17T02:15:27;15.30;;;2.45;;
84729;SDS011;74950;56.832;41.398;2024-03-17T02:18:13;17.80;;;2.63;;
84729;SDS011;74950;56.832;41.398;2024-03-17T02:20:39;12.25;;;2.28;;
84729;SDS011;74950;56.832;41.398;2024-03-17T02:23:25;8.90;;;2.72;;
84729;SDS011;74950;56.832;41.398;2024-03-17T02:25:53;17.75;;;2.42;;
84729;SDS011;74950;56.832;41.398;2024-03-17T02:28:20;9.60;;;2.33;;
84729;SDS011;74950;56.832;41.398;2024-03-17T02:30:47;20.35;;;3.45;;
84729;SDS011;74950;56.832;41.398;2024-03-17T02:33:13;12.98;;;3.15;;
84729;SDS011;74950;56.832;41.398;2024-03-17T02:35:40;30.38;;;3.88;;
84729;SDS011;74950;56.832;41.398;2024-03-17T02:38:06;10.27;;;2.83;;
84729;SDS011;74950;56.832;41.398;2024-03-17T02:40:42;23.88;;;4.50;;
84729;SDS011;74950;56.832;41.398;2024-03-17T02:43:09;4.60;;;1.70;;
84729;SDS011;74950;56.832;41.398;2024-03-17T02:45:35;18.10;;;3.00;;
84729;SDS011;74950;56.832;41.398;2024-03-17T02:48:02;33.33;;;5.10;;
84729;SDS011;74950;56.832;41.398;2024-03-17T02:50:28;12.23;;;3.25;;
84729;SDS011;74950;56.832;41.398;2024-03-17T02:52:54;19.67;;;2.88;;
84729;SDS011;74950;56.832;41.398;2024-03-17T02:55:21;16.52;;;3.00;;
84729;SDS011;74950;56.832;41.398;2024-03-17T02:57:47;19.80;;;3.25;;
84729;SDS011;74950;56.832;41.398;2024-03-17T03:00:14;13.80;;;2.42;;
84729;SDS011;74950;56.832;41.398;2024-03-17T03:02:40;23.30;;;3.70;;
84729;SDS011;74950;56.832;41.398;2024-03-17T03:05:25;27.15;;;3.90;;
84729;SDS011;74950;56.832;41.398;2024-03-17T03:07:51;30.42;;;5.13;;
84729;SDS011;74950;56.832;41.398;2024-03-17T03:10:18;16.75;;;2.85;;
84729;SDS011;74950;56.832;41.398;2024-03-17T03:12:44;20.85;;;4.07;;
84729;SDS011;74950;56.832;41.398;2024-03-17T03:15:10;30.95;;;3.20;;
84729;SDS011;74950;56.832;41.398;2024-03-17T03:17:36;41.40;;;4.80;;
84729;SDS011;74950;56.832;41.398;2024-03-17T03:20:03;22.25;;;2.88;;
84729;SDS011;74950;56.832;41.398;2024-03-17T03:22:31;31.50;;;4.13;;
84729;SDS011;74950;56.832;41.398;2024-03-17T03:24:57;42.80;;;3.85;;
84729;SDS011;74950;56.832;41.398;2024-03-17T03:27:25;24.30;;;4.07;;
84729;SDS011;74950;56.832;41.398;2024-03-17T03:29:51;27.52;;;3.50;;
84729;SDS011;74950;56.832;41.398;2024-03-17T03:32:17;38.53;;;5.28;;
84729;SDS011;74950;56.832;41.398;2024-03-17T03:34:43;21.05;;;4.32;;
84729;SDS011;74950;56.832;41.398;2024-03-17T03:37:09;30.23;;;3.88;;
84729;SDS011;74950;56.832;41.398;2024-03-17T03:39:36;22.77;;;3.10;;
84729;SDS011;74950;56.832;41.398;2024-03-17T03:42:03;20.92;;;3.17;;
84729;SDS011;74950;56.832;41.398;2024-03-17T03:44:29;27.60;;;3.47;;
84729;SDS011;74950;56.832;41.398;2024-03-17T03:46:56;39.60;;;4.53;;
84729;SDS011;74950;56.832;41.398;2024-03-17T03:49:24;17.02;;;2.17;;
84729;SDS011;74950;56.832;41.398;2024-03-17T03:51:51;25.63;;;4.78;;
84729;SDS011;74950;56.832;41.398;2024-03-17T03:54:17;31.55;;;5.38;;
84729;SDS011;74950;56.832;41.398;2024-03-17T03:56:44;33.58;;;4.60;;
84729;SDS011;74950;56.832;41.398;2024-03-17T03:59:10;15.90;;;3.92;;
84729;SDS011;74950;56.832;41.398;2024-03-17T04:01:36;20.38;;;4.00;;
84729;SDS011;74950;56.832;41.398;2024-03-17T04:04:02;25.45;;;4.78;;
84729;SDS011;74950;56.832;41.398;2024-03-17T04:06:29;23.67;;;3.95;;
84729;SDS011;74950;56.832;41.398;2024-03-17T04:08:55;26.23;;;2.90;;
84729;SDS011;74950;56.832;41.398;2024-03-17T04:11:39;26.80;;;4.55;;
84729;SDS011;74950;56.832;41.398;2024-03-17T04:14:06;15.10;;;3.20;;
84729;SDS011;74950;56.832;41.398;2024-03-17T04:16:32;34.53;;;4.20;;
84729;SDS011;74950;56.832;41.398;2024-03-17T04:18:58;26.95;;;3.17;;
84729;SDS011;74950;56.832;41.398;2024-03-17T04:21:24;31.52;;;4.78;;
84729;SDS011;74950;56.832;41.398;2024-03-17T04:23:51;31.15;;;3.83;;
84729;SDS011;74950;56.832;41.398;2024-03-17T04:26:17;68.20;;;9.15;;
84729;SDS011;74950;56.832;41.398;2024-03-17T04:28:44;36.13;;;5.10;;
84729;SDS011;74950;56.832;41.398;2024-03-17T04:31:10;19.45;;;2.88;;
84729;SDS011;74950;56.832;41.398;2024-03-17T04:33:37;32.50;;;5.45;;
84729;SDS011;74950;56.832;41.398;2024-03-17T04:36:03;35.67;;;5.43;;
84729;SDS011;74950;56.832;41.398;2024-03-17T04:38:29;22.55;;;4.30;;
84729;SDS011;74950;56.832;41.398;2024-03-17T04:40:56;23.17;;;3.10;;
84729;SDS011;74950;56.832;41.398;2024-03-17T04:43:31;23.17;;;3.05;;
84729;SDS011;74950;56.832;41.398;2024-03-17T04:46:01;13.13;;;4.25;;
84729;SDS011;74950;56.832;41.398;2024-03-17T04:48:30;44.45;;;6.10;;
84729;SDS011;74950;56.832;41.398;2024-03-17T04:50:58;32.22;;;4.50;;
84729;SDS011;74950;56.832;41.398;2024-03-17T04:53:26;18.73;;;3.28;;
84729;SDS011;74950;56.832;41.398;2024-03-17T04:55:58;31.02;;;4.03;;
84729;SDS011;74950;56.832;41.398;2024-03-17T04:58:25;33.58;;;4.55;;
84729;SDS011;74950;56.832;41.398;2024-03-17T05:00:52;25.60;;;3.53;;
84729;SDS011;74950;56.832;41.398;2024-03-17T05:03:18;24.90;;;4.93;;
84729;SDS011;74950;56.832;41.398;2024-03-17T05:05:44;40.00;;;5.80;;
84729;SDS011;74950;56.832;41.398;2024-03-17T05:08:10;24.63;;;5.75;;
84729;SDS011;74950;56.832;41.398;2024-03-17T05:10:37;43.95;;;5.13;;
84729;SDS011;74950;56.832;41.398;2024-03-17T05:13:03;26.95;;;5.22;;
84729;SDS011;74950;56.832;41.398;2024-03-17T05:15:29;55.50;;;6.60;;
84729;SDS011;74950;56.832;41.398;2024-03-17T05:18:13;30.85;;;4.75;;
84729;SDS011;74950;56.832;41.398;2024-03-17T05:20:40;22.20;;;4.25;;
84729;SDS011;74950;56.832;41.398;2024-03-17T05:23:06;42.92;;;5.30;;
84729;SDS011;74950;56.832;41.398;2024-03-17T05:25:32;36.80;;;6.00;;
84729;SDS011;74950;56.832;41.398;2024-03-17T05:28:02;46.63;;;5.03;;
84729;SDS011;74950;56.832;41.398;2024-03-17T05:30:29;42.58;;;5.63;;
84729;SDS011;74950;56.832;41.398;2024-03-17T05:32:56;40.58;;;6.30;;
84729;SDS011;74950;56.832;41.398;2024-03-17T05:35:24;52.10;;;6.45;;
84729;SDS011;74950;56.832;41.398;2024-03-17T05:37:51;33.40;;;4.55;;
84729;SDS011;74950;56.832;41.398;2024-03-17T05:40:17;40.15;;;6.30;;
84729;SDS011;74950;56.832;41.398;2024-03-17T05:42:44;33.45;;;4.30;;
84729;SDS011;74950;56.832;41.398;2024-03-17T05:45:10;38.25;;;6.60;;
84729;SDS011;74950;56.832;41.398;2024-03-17T05:50:07;40.92;;;7.43;;
84729;SDS011;74950;56.832;41.398;2024-03-17T05:52:33;28.02;;;4.20;;
84729;SDS011;74950;56.832;41.398;2024-03-17T05:55:19;42.08;;;6.38;;
84729;SDS011;74950;56.832;41.398;2024-03-17T05:57:45;35.28;;;4.57;;
84729;SDS011;74950;56.832;41.398;2024-03-17T06:00:11;39.58;;;4.38;;
84729;SDS011;74950;56.832;41.398;2024-03-17T06:02:41;60.97;;;7.05;;
84729;SDS011;74950;56.832;41.398;2024-03-17T06:05:07;38.08;;;6.43;;
84729;SDS011;74950;56.832;41.398;2024-03-17T06:07:35;49.20;;;7.55;;
84729;SDS011;74950;56.832;41.398;2024-03-17T06:10:02;41.13;;;5.57;;
84729;SDS011;74950;56.832;41.398;2024-03-17T06:12:29;38.95;;;5.55;;
84729;SDS011;74950;56.832;41.398;2024-03-17T06:14:56;20.58;;;5.30;;
84729;SDS011;74950;56.832;41.398;2024-03-17T06:17:22;27.02;;;4.55;;
84729;SDS011;74950;56.832;41.398;2024-03-17T06:19:48;26.58;;;6.72;;
84729;SDS011;74950;56.832;41.398;2024-03-17T06:22:15;41.97;;;4.80;;
84729;SDS011;74950;56.832;41.398;2024-03-17T06:24:41;27.05;;;6.20;;
84729;SDS011;74950;56.832;41.398;2024-03-17T06:27:07;33.50;;;6.30;;
84729;SDS011;74950;56.832;41.398;2024-03-17T06:29:33;38.92;;;5.85;;
84729;SDS011;74950;56.832;41.398;2024-03-17T06:32:01;35.22;;;4.68;;
84729;SDS011;74950;56.832;41.398;2024-03-17T06:34:28;44.20;;;5.28;;
84729;SDS011;74950;56.832;41.398;2024-03-17T06:36:54;50.97;;;6.88;;
84729;SDS011;74950;56.832;41.398;2024-03-17T06:39:20;27.63;;;4.85;;
84729;SDS011;74950;56.832;41.398;2024-03-17T06:42:05;47.88;;;6.07;;
84729;SDS011;74950;56.832;41.398;2024-03-17T06:44:31;39.17;;;8.50;;
84729;SDS011;74950;56.832;41.398;2024-03-17T06:46:59;18.15;;;3.55;;
84729;SDS011;74950;56.832;41.398;2024-03-17T06:49:25;38.42;;;6.40;;
84729;SDS011;74950;56.832;41.398;2024-03-17T06:51:51;33.38;;;7.72;;
84729;SDS011;74950;56.832;41.398;2024-03-17T06:54:18;34.65;;;4.95;;
84729;SDS011;74950;56.832;41.398;2024-03-17T06:56:45;34.88;;;5.22;;
84729;SDS011;74950;56.832;41.398;2024-03-17T06:59:13;40.30;;;5.25;;
84729;SDS011;74950;56.832;41.398;2024-03-17T07:01:39;29.33;;;5.38;;
84729;SDS011;74950;56.832;41.398;2024-03-17T07:04:05;15.75;;;3.80;;
84729;SDS011;74950;56.832;41.398;2024-03-17T07:06:31;34.28;;;5.25;;
84729;SDS011;74950;56.832;41.398;2024-03-17T07:08:57;63.10;;;8.30;;
84729;SDS011;74950;56.832;41.398;2024-03-17T07:11:23;32.95;;;5.57;;
84729;SDS011;74950;56.832;41.398;2024-03-17T07:13:50;33.15;;;5.85;;
84729;SDS011;74950;56.832;41.398;2024-03-17T07:16:17;19.02;;;3.95;;
84729;SDS011;74950;56.832;41.398;2024-03-17T07:19:02;27.88;;;7.05;;
84729;SDS011;74950;56.832;41.398;2024-03-17T07:21:28;16.58;;;3.35;;
84729;SDS011;74950;56.832;41.398;2024-03-17T07:23:55;32.85;;;5.82;;
84729;SDS011;74950;56.832;41.398;2024-03-17T07:26:21;57.33;;;7.47;;
84729;SDS011;74950;56.832;41.398;2024-03-17T07:28:48;26.35;;;5.28;;
84729;SDS011;74950;56.832;41.398;2024-03-17T07:31:14;58.55;;;8.30;;
84729;SDS011;74950;56.832;41.398;2024-03-17T07:33:41;36.05;;;8.25;;
84729;SDS011;74950;56.832;41.398;2024-03-17T07:36:07;44.50;;;8.05;;
84729;SDS011;74950;56.832;41.398;2024-03-17T07:38:35;42.85;;;7.72;;
84729;SDS011;74950;56.832;41.398;2024-03-17T07:41:02;43.85;;;7.40;;
84729;SDS011;74950;56.832;41.398;2024-03-17T07:43:35;40.25;;;7.45;;
84729;SDS011;74950;56.832;41.398;2024-03-17T07:48:32;42.65;;;6.82;;
84729;SDS011;74950;56.832;41.398;2024-03-17T07:51:03;37.97;;;7.70;;
84729;SDS011;74950;56.832;41.398;2024-03-17T07:53:30;34.08;;;7.22;;
84729;SDS011;74950;56.832;41.398;2024-03-17T07:55:57;52.33;;;7.45;;
84729;SDS011;74950;56.832;41.398;2024-03-17T07:58:30;32.08;;;6.38;;
84729;SDS011;74950;56.832;41.398;2024-03-17T08:01:03;31.73;;;8.70;;
84729;SDS011;74950;56.832;41.398;2024-03-17T08:03:30;34.17;;;5.90;;
84729;SDS011;74950;56.832;41.398;2024-03-17T08:05:58;30.95;;;5.28;;
84729;SDS011;74950;56.832;41.398;2024-03-17T08:08:24;34.70;;;5.88;;
84729;SDS011;74950;56.832;41.398;2024-03-17T08:10:50;40.88;;;6.13;;
84729;SDS011;74950;56.832;41.398;2024-03-17T08:13:17;31.35;;;6.07;;
84729;SDS011;74950;56.832;41.398;2024-03-17T08:15:44;28.95;;;5.55;;
84729;SDS011;74950;56.832;41.398;2024-03-17T08:18:11;40.70;;;6.50;;
84729;SDS011;74950;56.832;41.398;2024-03-17T08:20:39;40.13;;;8.38;;
84729;SDS011;74950;56.832;41.398;2024-03-17T08:23:09;38.50;;;8.10;;
84729;SDS011;74950;56.832;41.398;2024-03-17T08:25:36;31.23;;;8.95;;
84729;SDS011;74950;56.832;41.398;2024-03-17T08:28:03;39.15;;;9.00;;
84729;SDS011;74950;56.832;41.398;2024-03-17T08:30:29;48.72;;;6.85;;
84729;SDS011;74950;56.832;41.398;2024-03-17T08:32:59;32.78;;;6.78;;
84729;SDS011;74950;56.832;41.398;2024-03-17T08:35:27;32.38;;;5.75;;
84729;SDS011;74950;56.832;41.398;2024-03-17T08:37:53;34.92;;;8.20;;
84729;SDS011;74950;56.832;41.398;2024-03-17T08:40:20;29.20;;;6.03;;
84729;SDS011;74950;56.832;41.398;2024-03-17T08:42:49;22.95;;;4.78;;
84729;SDS011;74950;56.832;41.398;2024-03-17T08:45:15;26.45;;;5.32;;
84729;SDS011;74950;56.832;41.398;2024-03-17T08:47:42;22.95;;;4.35;;
84729;SDS011;74950;56.832;41.398;2024-03-17T08:50:09;25.25;;;4.13;;
84729;SDS011;74950;56.832;41.398;2024-03-17T08:52:38;24.10;;;5.35;;
84729;SDS011;74950;56.832;41.398;2024-03-17T08:55:05;35.53;;;5.32;;
84729;SDS011;74950;56.832;41.398;2024-03-17T08:57:35;32.65;;;5.72;;
84729;SDS011;74950;56.832;41.398;2024-03-17T09:00:02;36.90;;;5.65;;
84729;SDS011;74950;56.832;41.398;2024-03-17T09:02:46;35.67;;;4.80;;
84729;SDS011;74950;56.832;41.398;2024-03-17T09:05:13;31.73;;;5.70;;
84729;SDS011;74950;56.832;41.398;2024-03-17T09:07:39;25.63;;;4.35;;
84729;SDS011;74950;56.832;41.398;2024-03-17T09:10:05;33.53;;;4.82;;
84729;SDS011;74950;56.832;41.398;2024-03-17T09:12:32;46.50;;;5.55;;
84729;SDS011;74950;56.832;41.398;2024-03-17T09:14:58;35.55;;;4.97;;
84729;SDS011;74950;56.832;41.398;2024-03-17T09:17:24;24.50;;;4.75;;
84729;SDS011;74950;56.832;41.398;2024-03-17T09:19:50;40.25;;;6.00;;
84729;SDS011;74950;56.832;41.398;2024-03-17T09:22:17;32.15;;;4.50;;
84729;SDS011;74950;56.832;41.398;2024-03-17T09:24:43;29.10;;;4.57;;
84729;SDS011;74950;56.832;41.398;2024-03-17T09:27:09;23.23;;;4.60;;
84729;SDS011;74950;56.832;41.398;2024-03-17T09:29:54;39.90;;;6.07;;
84729;SDS011;74950;56.832;41.398;2024-03-17T09:32:21;27.25;;;4.35;;
84729;SDS011;74950;56.832;41.398;2024-03-17T09:34:47;35.92;;;5.18;;
84729;SDS011;74950;56.832;41.398;2024-03-17T09:37:15;29.60;;;3.88;;
84729;SDS011;74950;56.832;41.398;2024-03-17T09:39:42;26.95;;;4.75;;
84729;SDS011;74950;56.832;41.398;2024-03-17T09:42:16;29.23;;;4.75;;
84729;SDS011;74950;56.832;41.398;2024-03-17T09:44:48;38.45;;;4.90;;
84729;SDS011;74950;56.832;41.398;2024-03-17T09:47:16;35.50;;;5.13;;
84729;SDS011;74950;56.832;41.398;2024-03-17T09:49:47;32.17;;;5.30;;
84729;SDS011;74950;56.832;41.398;2024-03-17T09:52:21;43.78;;;5.63;;
84729;SDS011;74950;56.832;41.398;2024-03-17T09:54:59;22.63;;;5.55;;
84729;SDS011;74950;56.832;41.398;2024-03-17T09:57:27;29.08;;;4.95;;
84729;SDS011;74950;56.832;41.398;2024-03-17T09:59:54;26.42;;;4.68;;
84729;SDS011;74950;56.832;41.398;2024-03-17T10:02:21;30.20;;;5.05;;
84729;SDS011;74950;56.832;41.398;2024-03-17T10:04:48;35.40;;;4.80;;
84729;SDS011;74950;56.832;41.398;2024-03-17T10:07:15;24.02;;;4.75;;
84729;SDS011;74950;56.832;41.398;2024-03-17T10:09:42;23.30;;;4.45;;
84729;SDS011;74950;56.832;41.398;2024-03-17T10:12:26;32.80;;;6.70;;
84729;SDS011;74950;56.832;41.398;2024-03-17T10:15:00;22.08;;;5.03;;
84729;SDS011;74950;56.832;41.398;2024-03-17T10:17:30;25.33;;;7.05;;
84729;SDS011;74950;56.832;41.398;2024-03-17T10:20:11;37.38;;;7.05;;
84729;SDS011;74950;56.832;41.398;2024-03-17T10:23:06;43.33;;;6.25;;
84729;SDS011;74950;56.832;41.398;2024-03-17T10:25:38;27.30;;;7.10;;
84729;SDS011;74950;56.832;41.398;2024-03-17T10:28:11;35.53;;;5.78;;
84729;SDS011;74950;56.832;41.398;2024-03-17T10:30:39;26.88;;;5.45;;
84729;SDS011;74950;56.832;41.398;2024-03-17T10:33:06;27.90;;;4.75;;
84729;SDS011;74950;56.832;41.398;2024-03-17T10:35:37;39.20;;;5.90;;
84729;SDS011;74950;56.832;41.398;2024-03-17T10:40:33;27.83;;;5.55;;
84729;SDS011;74950;56.832;41.398;2024-03-17T10:43:02;26.02;;;4.32;;
84729;SDS011;74950;56.832;41.398;2024-03-17T10:45:29;25.13;;;6.35;;
84729;SDS011;74950;56.832;41.398;2024-03-17T10:48:02;43.22;;;6.28;;
84729;SDS011;74950;56.832;41.398;2024-03-17T10:50:35;46.22;;;5.60;;
84729;SDS011;74950;56.832;41.398;2024-03-17T10:53:03;31.05;;;6.25;;
84729;SDS011;74950;56.832;41.398;2024-03-17T10:55:43;30.48;;;5.13;;
84729;SDS011;74950;56.832;41.398;2024-03-17T11:01:00;43.00;;;6.13;;
84729;SDS011;74950;56.832;41.398;2024-03-17T11:03:32;26.17;;;5.78;;
84729;SDS011;74950;56.832;41.398;2024-03-17T11:05:59;42.92;;;5.57;;
84729;SDS011;74950;56.832;41.398;2024-03-17T11:08:30;35.42;;;5.45;;
84729;SDS011;74950;56.832;41.398;2024-03-17T11:10:58;39.38;;;4.40;;
84729;SDS011;74950;56.832;41.398;2024-03-17T11:13:26;41.55;;;4.78;;
84729;SDS011;74950;56.832;41.398;2024-03-17T11:15:53;30.13;;;5.18;;
84729;SDS011;74950;56.832;41.398;2024-03-17T11:23:26;26.85;;;4.68;;
84729;SDS011;74950;56.832;41.398;2024-03-17T11:25:57;29.50;;;5.75;;
84729;SDS011;74950;56.832;41.398;2024-03-17T11:28:46;33.00;;;5.90;;
84729;SDS011;74950;56.832;41.398;2024-03-17T11:31:41;26.80;;;4.22;;
84729;SDS011;74950;56.832;41.398;2024-03-17T11:34:26;23.08;;;7.65;;
84729;SDS011;74950;56.832;41.398;2024-03-17T11:36:54;35.08;;;6.88;;
84729;SDS011;74950;56.832;41.398;2024-03-17T11:39:58;26.45;;;5.28;;
84729;SDS011;74950;56.832;41.398;2024-03-17T11:42:16;38.47;;;5.60;;
84729;SDS011;74950;56.832;41.398;2024-03-17T11:44:43;20.90;;;3.83;;
84729;SDS011;74950;56.832;41.398;2024-03-17T11:47:11;18.25;;;3.25;;
84729;SDS011;74950;56.832;41.398;2024-03-17T11:49:38;37.72;;;4.60;;
84729;SDS011;74950;56.832;41.398;2024-03-17T11:52:13;31.52;;;4.80;;
84729;SDS011;74950;56.832;41.398;2024-03-17T11:54:42;38.97;;;6.50;;
84729;SDS011;74950;56.832;41.398;2024-03-17T11:57:10;29.30;;;4.68;;
84729;SDS011;74950;56.832;41.398;2024-03-17T11:59:44;28.13;;;4.45;;
84729;SDS011;74950;56.832;41.398;2024-03-17T12:02:16;17.55;;;3.55;;
84729;SDS011;74950;56.832;41.398;2024-03-17T12:04:45;42.05;;;8.15;;
84729;SDS011;74950;56.832;41.398;2024-03-17T12:07:12;33.80;;;6.80;;
84729;SDS011;74950;56.832;41.398;2024-03-17T12:09:43;41.03;;;5.68;;
84729;SDS011;74950;56.832;41.398;2024-03-17T12:12:30;37.08;;;8.75;;
84729;SDS011;74950;56.832;41.398;2024-03-17T12:15:10;20.52;;;4.30;;
84729;SDS011;74950;56.832;41.398;2024-03-17T12:17:44;44.60;;;6.38;;
84729;SDS011;74950;56.832;41.398;2024-03-17T12:20:16;28.92;;;5.85;;
84729;SDS011;74950;56.832;41.398;2024-03-17T12:22:43;47.75;;;7.07;;
84729;SDS011;74950;56.832;41.398;2024-03-17T12:25:16;45.33;;;7.07;;
84729;SDS011;74950;56.832;41.398;2024-03-17T12:27:45;37.08;;;7.28;;
84729;SDS011;74950;56.832;41.398;2024-03-17T12:30:12;31.30;;;5.85;;
84729;SDS011;74950;56.832;41.398;2024-03-17T12:32:38;34.40;;;4.65;;
84729;SDS011;74950;56.832;41.398;2024-03-17T12:35:11;37.47;;;5.43;;
84729;SDS011;74950;56.832;41.398;2024-03-17T12:37:39;39.88;;;6.68;;
84729;SDS011;74950;56.832;41.398;2024-03-17T12:40:15;27.77;;;4.63;;
84729;SDS011;74950;56.832;41.398;2024-03-17T12:42:47;42.05;;;6.88;;
84729;SDS011;74950;56.832;41.398;2024-03-17T12:45:14;36.80;;;6.82;;
84729;SDS011;74950;56.832;41.398;2024-03-17T12:47:40;32.83;;;4.40;;
84729;SDS011;74950;56.832;41.398;2024-03-17T12:50:14;22.02;;;4.13;;
84729;SDS011;74950;56.832;41.398;2024-03-17T12:52:53;36.78;;;6.47;;
84729;SDS011;74950;56.832;41.398;2024-03-17T12:55:22;22.60;;;4.20;;
84729;SDS011;74950;56.832;41.398;2024-03-17T12:58:09;42.20;;;6.55;;
84729;SDS011;74950;56.832;41.398;2024-03-17T13:01:14;35.42;;;4.60;;
84729;SDS011;74950;56.832;41.398;2024-03-17T13:03:40;13.93;;;4.25;;
84729;SDS011;74950;56.832;41.398;2024-03-17T13:06:09;13.20;;;2.85;;
84729;SDS011;74950;56.832;41.398;2024-03-17T13:08:36;43.85;;;6.20;;
84729;SDS011;74950;56.832;41.398;2024-03-17T13:11:03;23.08;;;4.30;;
84729;SDS011;74950;56.832;41.398;2024-03-17T13:13:35;38.60;;;4.97;;
84729;SDS011;74950;56.832;41.398;2024-03-17T13:16:02;34.22;;;4.85;;
84729;SDS011;74950;56.832;41.398;2024-03-17T13:18:28;36.60;;;4.70;;
84729;SDS011;74950;56.832;41.398;2024-03-17T13:20:54;28.33;;;4.22;;
84729;SDS011;74950;56.832;41.398;2024-03-17T13:23:24;35.65;;;4.00;;
84729;SDS011;74950;56.832;41.398;2024-03-17T13:25:51;37.85;;;5.72;;
84729;SDS011;74950;56.832;41.398;2024-03-17T13:28:17;33.05;;;4.25;;
84729;SDS011;74950;56.832;41.398;2024-03-17T13:30:44;50.85;;;5.85;;
84729;SDS011;74950;56.832;41.398;2024-03-17T13:33:10;23.75;;;4.43;;
84729;SDS011;74950;56.832;41.398;2024-03-17T13:35:40;35.25;;;6.40;;
84729;SDS011;74950;56.832;41.398;2024-03-17T13:38:08;44.45;;;6.95;;
84729;SDS011;74950;56.832;41.398;2024-03-17T13:40:38;51.10;;;10.00;;
84729;SDS011;74950;56.832;41.398;2024-03-17T13:43:05;48.28;;;8.02;;
84729;SDS011;74950;56.832;41.398;2024-03-17T13:45:37;50.17;;;7.55;;
84729;SDS011;74950;56.832;41.398;2024-03-17T13:48:23;72.43;;;8.05;;
84729;SDS011;74950;56.832;41.398;2024-03-17T13:50:49;47.58;;;7.93;;
84729;SDS011;74950;56.832;41.398;2024-03-17T13:53:15;45.60;;;5.53;;
84729;SDS011;74950;56.832;41.398;2024-03-17T13:56:00;52.55;;;6.75;;
84729;SDS011;74950;56.832;41.398;2024-03-17T13:58:26;56.00;;;9.10;;
84729;SDS011;74950;56.832;41.398;2024-03-17T14:00:52;43.85;;;6.00;;
84729;SDS011;74950;56.832;41.398;2024-03-17T14:03:37;66.97;;;8.40;;
84729;SDS011;74950;56.832;41.398;2024-03-17T14:06:03;55.10;;;9.38;;
84729;SDS011;74950;56.832;41.398;2024-03-17T14:08:31;58.97;;;9.98;;
84729;SDS011;74950;56.832;41.398;2024-03-17T14:10:57;36.72;;;5.80;;
84729;SDS011;74950;56.832;41.398;2024-03-17T14:13:24;39.40;;;5.97;;
84729;SDS011;74950;56.832;41.398;2024-03-17T14:15:50;67.10;;;8.50;;
84729;SDS011;74950;56.832;41.398;2024-03-17T14:18:16;44.00;;;8.13;;
84729;SDS011;74950;56.832;41.398;2024-03-17T14:21:01;58.53;;;8.52;;
84729;SDS011;74950;56.832;41.398;2024-03-17T14:23:28;45.38;;;7.22;;
84729;SDS011;74950;56.832;41.398;2024-03-17T14:25:56;69.70;;;8.15;;
84729;SDS011;74950;56.832;41.398;2024-03-17T14:28:23;49.55;;;8.00;;
84729;SDS011;74950;56.832;41.398;2024-03-17T14:30:49;71.45;;;10.32;;
84729;SDS011;74950;56.832;41.398;2024-03-17T14:33:15;43.40;;;6.20;;
84729;SDS011;74950;56.832;41.398;2024-03-17T14:35:41;74.63;;;10.05;;
84729;SDS011;74950;56.832;41.398;2024-03-17T14:38:08;58.83;;;7.50;;
84729;SDS011;74950;56.832;41.398;2024-03-17T14:40:34;73.32;;;12.35;;
84729;SDS011;74950;56.832;41.398;2024-03-17T14:43:01;42.25;;;8.32;;
84729;SDS011;74950;56.832;41.398;2024-03-17T14:45:29;74.57;;;9.05;;